This is the latest recevied weather packets stored in our database for station/object DK6MR. If no packets are shown the sender has not sent any weather packets the latest 10 day(s).
| Time | Temp. | Humidity | Pressure | Rain* | Wind** | Luminosity | Snow |
|---|---|---|---|---|---|---|---|
| 1777670704 | 12.22° C | 66% | 1020.6 hPa | 0 mm | - | - | - |
| 1777669802 | 12.78° C | 64% | 1020.6 hPa | 0 mm | - | - | - |
| 1777668902 | 13.33° C | 64% | 1020.6 hPa | 0 mm | - | - | - |
| 1777668000 | 13.89° C | 62% | 1020.6 hPa | 0 mm | - | - | - |
| 1777667099 | 13.89° C | 59% | 1020.6 hPa | 0 mm | - | - | - |
| 1777666198 | 14.44° C | 56% | 1020.6 hPa | 0 mm | - | - | - |
| 1777665297 | 15.56° C | 53% | 1020.6 hPa | 0 mm | - | - | - |
| 1777664396 | 17.22° C | 47% | 1020.6 hPa | 0 mm | - | - | - |
| 1777663496 | 16.67° C | 47% | 1020.6 hPa | 0 mm | - | - | - |
| 1777662594 | 17.22° C | 49% | 1020.6 hPa | 0 mm | - | - | - |
| 1777661693 | 18.33° C | 44% | 1020.6 hPa | 0 mm | - | - | - |
| 1777660792 | 18.89° C | 44% | 1020.6 hPa | 0 mm | - | - | - |
| 1777659892 | 20.56° C | 38% | 1020.3 hPa | 0 mm | - | - | - |
| 1777658991 | 21.11° C | 36% | 1020.6 hPa | 0 mm | - | - | - |
| 1777658090 | 21.67° C | 34% | 1020.6 hPa | 0 mm | - | - | - |
| 1777657189 | 22.22° C | 34% | 1020.3 hPa | 0 mm | - | - | - |
| 1777656288 | 22.22° C | 32% | 1020.3 hPa | 0 mm | - | - | - |
| 1777655387 | 22.78° C | 32% | 1020.6 hPa | 0 mm | - | - | - |
| 1777654486 | 23.33° C | 30% | 1020.3 hPa | 0 mm | - | - | - |
| 1777653585 | 22.78° C | 31% | 1020.6 hPa | 0 mm | - | - | - |
| 1777652684 | 23.33° C | 30% | 1020.6 hPa | 0 mm | - | - | - |
| 1777651783 | 23.89° C | 30% | 1020.6 hPa | 0 mm | - | - | - |
| 1777650882 | 23.89° C | 29% | 1020.6 hPa | 0 mm | - | - | - |
| 1777649981 | 23.89° C | 28% | 1021 hPa | 0 mm | - | - | - |
| 1777649080 | 24.44° C | 30% | 1021 hPa | 0 mm | - | - | - |
* Rain latest hour (hover to see other rain measurements)
** Current wind speed in m/s (hover to see current wind gust speed)